sensor_id;sensor_type;location;lat;lon;timestamp;temperature;humidity
45315;SHT31;31051;51.540;5.852;2023-05-17T00:12:10;6.3;86.0
45315;SHT31;31051;51.540;5.852;2023-05-17T00:25:10;6.1;86.9
45315;SHT31;31051;51.540;5.852;2023-05-17T00:38:09;6.3;88.1
45315;SHT31;31051;51.540;5.852;2023-05-17T00:51:08;6.8;89.4
45315;SHT31;31051;51.540;5.852;2023-05-17T01:04:07;6.9;89.5
45315;SHT31;31051;51.540;5.852;2023-05-17T01:17:07;7.0;89.0
45315;SHT31;31051;51.540;5.852;2023-05-17T01:30:06;6.9;89.1
45315;SHT31;31051;51.540;5.852;2023-05-17T01:43:05;7.0;89.6
45315;SHT31;31051;51.540;5.852;2023-05-17T01:56:04;7.0;89.6
45315;SHT31;31051;51.540;5.852;2023-05-17T02:09:04;7.1;89.6
45315;SHT31;31051;51.540;5.852;2023-05-17T02:22:03;7.1;89.3
45315;SHT31;31051;51.540;5.852;2023-05-17T02:35:02;7.0;88.7
45315;SHT31;31051;51.540;5.852;2023-05-17T02:48:02;6.9;88.6
45315;SHT31;31051;51.540;5.852;2023-05-17T03:01:01;7.2;90.4
45315;SHT31;31051;51.540;5.852;2023-05-17T03:14:00;7.5;90.2
45315;SHT31;31051;51.540;5.852;2023-05-17T03:26:59;7.7;90.2
45315;SHT31;31051;51.540;5.852;2023-05-17T03:39:59;7.9;89.6
45315;SHT31;31051;51.540;5.852;2023-05-17T03:52:58;8.1;89.7
45315;SHT31;31051;51.540;5.852;2023-05-17T04:05:57;8.3;89.6
45315;SHT31;31051;51.540;5.852;2023-05-17T04:18:56;8.2;88.9
45315;SHT31;31051;51.540;5.852;2023-05-17T04:31:56;8.3;89.9
45315;SHT31;31051;51.540;5.852;2023-05-17T04:44:55;8.4;89.9
45315;SHT31;31051;51.540;5.852;2023-05-17T04:57:54;8.7;90.2
45315;SHT31;31051;51.540;5.852;2023-05-17T05:10:53;9.1;90.0
45315;SHT31;31051;51.540;5.852;2023-05-17T05:23:53;9.3;88.1
45315;SHT31;31051;51.540;5.852;2023-05-17T05:36:52;9.4;87.6
45315;SHT31;31051;51.540;5.852;2023-05-17T05:49:51;9.7;87.4
45315;SHT31;31051;51.540;5.852;2023-05-17T06:02:51;9.9;85.7
45315;SHT31;31051;51.540;5.852;2023-05-17T06:15:50;10.0;81.2
45315;SHT31;31051;51.540;5.852;2023-05-17T06:28:49;10.2;80.0
45315;SHT31;31051;51.540;5.852;2023-05-17T06:41:49;10.6;78.3
45315;SHT31;31051;51.540;5.852;2023-05-17T06:54:48;10.9;75.8
45315;SHT31;31051;51.540;5.852;2023-05-17T07:07:47;11.3;73.1
45315;SHT31;31051;51.540;5.852;2023-05-17T07:20:47;12.4;67.1
45315;SHT31;31051;51.540;5.852;2023-05-17T07:33:46;13.6;63.3
45315;SHT31;31051;51.540;5.852;2023-05-17T07:46:45;13.7;57.0
45315;SHT31;31051;51.540;5.852;2023-05-17T07:59:45;13.8;57.8
45315;SHT31;31051;51.540;5.852;2023-05-17T08:12:44;14.0;58.6
45315;SHT31;31051;51.540;5.852;2023-05-17T08:25:43;14.8;57.4
45315;SHT31;31051;51.540;5.852;2023-05-17T08:38:43;13.6;56.8
45315;SHT31;31051;51.540;5.852;2023-05-17T08:51:42;13.3;59.1
45315;SHT31;31051;51.540;5.852;2023-05-17T09:04:41;13.9;54.7
45315;SHT31;31051;51.540;5.852;2023-05-17T09:17:41;14.1;54.3
45315;SHT31;31051;51.540;5.852;2023-05-17T09:30:40;14.5;51.8
45315;SHT31;31051;51.540;5.852;2023-05-17T09:43:39;13.8;52.6
45315;SHT31;31051;51.540;5.852;2023-05-17T09:56:39;15.1;48.6
45315;SHT31;31051;51.540;5.852;2023-05-17T10:09:37;15.9;45.3
45315;SHT31;31051;51.540;5.852;2023-05-17T10:22:27;15.4;45.3
45315;SHT31;31051;51.540;5.852;2023-05-17T10:35:25;15.3;51.2
45315;SHT31;31051;51.540;5.852;2023-05-17T10:48:14;15.4;47.5
45315;SHT31;31051;51.540;5.852;2023-05-17T11:01:14;15.7;46.7
45315;SHT31;31051;51.540;5.852;2023-05-17T11:14:13;16.8;47.5
45315;SHT31;31051;51.540;5.852;2023-05-17T11:27:11;16.6;42.3
45315;SHT31;31051;51.540;5.852;2023-05-17T11:40:01;16.8;46.6
45315;SHT31;31051;51.540;5.852;2023-05-17T11:53:00;16.4;44.6
45315;SHT31;31051;51.540;5.852;2023-05-17T12:05:59;16.3;44.2
45315;SHT31;31051;51.540;5.852;2023-05-17T12:18:59;16.5;43.9
45315;SHT31;31051;51.540;5.852;2023-05-17T12:31:58;16.5;42.2
45315;SHT31;31051;51.540;5.852;2023-05-17T12:44:58;16.0;43.4
45315;SHT31;31051;51.540;5.852;2023-05-17T12:57:57;16.6;41.3
45315;SHT31;31051;51.540;5.852;2023-05-17T13:10:56;17.3;38.3
45315;SHT31;31051;51.540;5.852;2023-05-17T13:23:56;16.9;43.3
45315;SHT31;31051;51.540;5.852;2023-05-17T13:36:55;17.4;40.8
45315;SHT31;31051;51.540;5.852;2023-05-17T13:49:55;17.2;42.2
45315;SHT31;31051;51.540;5.852;2023-05-17T14:02:54;17.2;42.0
45315;SHT31;31051;51.540;5.852;2023-05-17T14:15:53;16.8;43.8
45315;SHT31;31051;51.540;5.852;2023-05-17T14:28:53;17.1;45.5
45315;SHT31;31051;51.540;5.852;2023-05-17T14:41:52;17.4;42.6
45315;SHT31;31051;51.540;5.852;2023-05-17T14:54:52;16.7;44.1
45315;SHT31;31051;51.540;5.852;2023-05-17T15:07:51;16.9;44.1
45315;SHT31;31051;51.540;5.852;2023-05-17T15:20:50;16.4;45.7
45315;SHT31;31051;51.540;5.852;2023-05-17T15:33:50;16.1;44.7
45315;SHT31;31051;51.540;5.852;2023-05-17T15:46:49;16.2;46.9
45315;SHT31;31051;51.540;5.852;2023-05-17T15:59:48;16.7;44.2
45315;SHT31;31051;51.540;5.852;2023-05-17T16:12:48;16.6;44.4
45315;SHT31;31051;51.540;5.852;2023-05-17T16:25:46;16.3;44.6
45315;SHT31;31051;51.540;5.852;2023-05-17T16:38:36;16.2;46.0
45315;SHT31;31051;51.540;5.852;2023-05-17T16:51:35;16.5;46.5
45315;SHT31;31051;51.540;5.852;2023-05-17T17:04:34;16.5;45.8
45315;SHT31;31051;51.540;5.852;2023-05-17T17:17:33;16.1;45.8
45315;SHT31;31051;51.540;5.852;2023-05-17T17:30:22;15.4;48.5
45315;SHT31;31051;51.540;5.852;2023-05-17T17:43:21;15.0;50.6
45315;SHT31;31051;51.540;5.852;2023-05-17T17:56:21;14.9;50.4
45315;SHT31;31051;51.540;5.852;2023-05-17T18:09:20;14.7;49.0
45315;SHT31;31051;51.540;5.852;2023-05-17T18:22:19;14.6;48.5
45315;SHT31;31051;51.540;5.852;2023-05-17T18:35:19;14.3;51.1
45315;SHT31;31051;51.540;5.852;2023-05-17T18:48:18;13.8;52.1
45315;SHT31;31051;51.540;5.852;2023-05-17T19:01:17;13.1;52.7
45315;SHT31;31051;51.540;5.852;2023-05-17T19:14:17;12.4;53.9
45315;SHT31;31051;51.540;5.852;2023-05-17T19:27:16;11.5;56.5
45315;SHT31;31051;51.540;5.852;2023-05-17T19:40:15;10.6;59.4
45315;SHT31;31051;51.540;5.852;2023-05-17T19:53:15;10.3;62.5
45315;SHT31;31051;51.540;5.852;2023-05-17T20:06:14;10.0;63.7
45315;SHT31;31051;51.540;5.852;2023-05-17T20:19:13;9.7;66.3
45315;SHT31;31051;51.540;5.852;2023-05-17T20:32:12;9.5;66.8
45315;SHT31;31051;51.540;5.852;2023-05-17T20:45:12;9.4;67.2
45315;SHT31;31051;51.540;5.852;2023-05-17T20:58:11;9.1;67.6
45315;SHT31;31051;51.540;5.852;2023-05-17T21:11:10;8.8;68.7
45315;SHT31;31051;51.540;5.852;2023-05-17T21:24:09;8.3;69.9
45315;SHT31;31051;51.540;5.852;2023-05-17T21:37:09;7.7;71.8
45315;SHT31;31051;51.540;5.852;2023-05-17T21:50:08;7.2;72.9
45315;SHT31;31051;51.540;5.852;2023-05-17T22:03:07;7.2;74.7
45315;SHT31;31051;51.540;5.852;2023-05-17T22:16:06;7.1;74.5
45315;SHT31;31051;51.540;5.852;2023-05-17T22:29:06;7.0;74.7
45315;SHT31;31051;51.540;5.852;2023-05-17T22:42:05;7.1;75.7
45315;SHT31;31051;51.540;5.852;2023-05-17T22:55:04;6.9;75.2
45315;SHT31;31051;51.540;5.852;2023-05-17T23:08:03;6.7;75.9
45315;SHT31;31051;51.540;5.852;2023-05-17T23:21:03;6.6;76.1
45315;SHT31;31051;51.540;5.852;2023-05-17T23:34:02;6.4;76.6
45315;SHT31;31051;51.540;5.852;2023-05-17T23:47:01;6.4;76.6
